Time;durP1;ratioP1;P1;durP2;ratioP2;P2;SDS_P1;SDS_P2;PMS_P1;PMS_P2;Temp;Humidity;BMP_temperature;BMP_pressure;BME280_temperature;BME280_humidity;BME280_pressure;Samples;Min_cycle;Max_cycle;Signal;HPM_P1;HPM_P2
2023/04/08 00:00:34;;;;;;;26.17;13.52;;;;;;;12.84;69.80;102410.16;5105533;27;20486;-37
2023/04/08 00:03:00;;;;;;;28.25;14.25;;;;;;;12.91;69.60;102407.78;5104397;28;20038;-40
2023/04/08 00:05:26;;;;;;;28.10;13.60;;;;;;;13.08;68.98;102408.25;5109123;27;20027;-43
2023/04/08 00:07:51;;;;;;;24.70;13.15;;;;;;;13.01;69.00;102404.56;5098985;28;20032;-39
2023/04/08 00:10:17;;;;;;;25.50;13.70;;;;;;;12.84;69.39;102399.69;5104023;27;20030;-39
2023/04/08 00:12:42;;;;;;;28.20;14.32;;;;;;;12.72;69.76;102408.09;5108219;28;20126;-39
2023/04/08 00:15:08;;;;;;;27.65;14.38;;;;;;;12.77;69.50;102406.50;5107922;28;20405;-37
2023/04/08 00:17:33;;;;;;;29.05;14.68;;;;;;;12.85;69.62;102405.00;5108523;28;20673;-38
2023/04/08 00:19:59;;;;;;;26.92;13.95;;;;;;;12.88;69.58;102404.16;5104956;28;20035;-38
2023/04/08 00:22:24;;;;;;;28.25;14.27;;;;;;;12.98;69.32;102400.97;5105248;28;20023;-38
2023/04/08 00:24:50;;;;;;;25.10;14.10;;;;;;;12.83;70.01;102397.91;5104124;28;20031;-38
2023/04/08 00:27:15;;;;;;;28.85;14.40;;;;;;;12.74;70.55;102405.53;5100235;28;20043;-38
2023/04/08 00:29:40;;;;;;;27.80;14.70;;;;;;;12.83;70.17;102409.28;5104062;27;20038;-38
2023/04/08 00:32:06;;;;;;;29.55;14.98;;;;;;;12.68;70.55;102408.84;5100227;28;20088;-37
2023/04/08 00:34:32;;;;;;;30.35;14.90;;;;;;;12.72;70.41;102412.44;5103380;28;20488;-40
2023/04/08 00:36:58;;;;;;;28.60;14.45;;;;;;;12.88;70.04;102409.41;5099456;27;20042;-40
2023/04/08 00:39:23;;;;;;;29.02;14.82;;;;;;;12.85;69.86;102412.84;5103437;27;20076;-41
2023/04/08 00:41:48;;;;;;;29.77;14.77;;;;;;;12.62;70.54;102416.53;5103863;28;20548;-39
2023/04/08 00:44:14;;;;;;;29.70;14.88;;;;;;;12.67;70.86;102417.53;5104863;28;20114;-38
2023/04/08 00:46:39;;;;;;;28.45;15.32;;;;;;;12.66;70.78;102414.88;5105909;28;20034;-39
2023/04/08 00:49:06;;;;;;;26.65;14.02;;;;;;;12.89;70.16;102412.06;5099155;28;20031;-38
2023/04/08 00:51:32;;;;;;;31.40;15.43;;;;;;;12.83;70.31;102418.84;5102380;28;20024;-40
2023/04/08 00:53:59;;;;;;;27.42;14.55;;;;;;;12.87;70.13;102410.25;5104253;22;20055;-46
2023/04/08 00:56:25;;;;;;;32.28;15.35;;;;;;;12.89;70.05;102406.84;5083487;28;20448;-45
2023/04/08 00:58:53;;;;;;;30.00;14.93;;;;;;;12.83;70.26;102421.47;5083983;28;20024;-45
2023/04/08 01:01:36;;;;;;;29.08;15.02;;;;;;;12.77;70.49;102418.69;5080977;28;20444;-44
2023/04/08 01:04:48;;;;;;;31.88;15.88;;;;;;;12.42;71.75;102417.66;5096737;28;20066;-48
2023/04/08 01:07:20;;;;;;;28.85;15.13;;;;;;;12.69;70.99;102428.91;5066438;28;20123;-44
2023/04/08 01:09:54;;;;;;;32.00;15.15;;;;;;;12.92;70.52;102427.88;5103412;28;20413;-44
2023/04/08 01:12:26;;;;;;;34.30;15.90;;;;;;;13.04;69.92;102423.84;5099690;28;20036;-47
2023/04/08 01:14:57;;;;;;;32.08;16.10;;;;;;;12.93;70.29;102421.78;5103288;28;20024;-43
2023/04/08 01:17:23;;;;;;;31.70;16.00;;;;;;;12.98;69.87;102424.53;5100031;28;20035;-47
2023/04/08 01:19:50;;;;;;;29.63;14.77;;;;;;;13.07;69.64;102422.16;5102727;28;20633;-45
2023/04/08 01:22:40;;;;;;;30.38;15.93;;;;;;;12.80;70.34;102430.16;5099147;28;20096;-43
2023/04/08 01:25:11;;;;;;;31.85;15.98;;;;;;;12.77;70.67;102426.53;5098996;28;20089;-44
2023/04/08 01:27:38;;;;;;;30.02;14.93;;;;;;;12.89;70.62;102424.28;5103038;28;20114;-43
2023/04/08 01:30:05;;;;;;;33.03;15.68;;;;;;;12.88;70.47;102419.88;5099251;28;20134;-46
2023/04/08 01:32:32;;;;;;;31.00;15.43;;;;;;;12.95;70.18;102421.81;5102870;28;20497;-44
2023/04/08 01:35:00;;;;;;;32.88;15.55;;;;;;;12.94;70.37;102425.28;5099473;28;20489;-49
2023/04/08 01:37:27;;;;;;;32.35;15.55;;;;;;;12.92;70.51;102421.75;5103608;28;20389;-43
2023/04/08 01:39:54;;;;;;;29.92;15.18;;;;;;;12.91;70.43;102418.25;5103033;28;20118;-47
2023/04/08 01:42:21;;;;;;;32.65;15.57;;;;;;;12.91;70.04;102426.09;5099535;28;20349;-45
2023/04/08 01:44:48;;;;;;;32.25;15.27;;;;;;;12.70;71.07;102420.22;5103503;28;20062;-44
2023/04/08 01:47:14;;;;;;;33.40;15.52;;;;;;;12.68;71.12;102415.81;5102740;27;20027;-43
2023/04/08 01:49:40;;;;;;;31.17;14.85;;;;;;;12.81;70.89;102428.38;5106801;28;20036;-43
2023/04/08 01:52:08;;;;;;;35.10;16.63;;;;;;;12.83;70.86;102426.72;5102963;28;20035;-44
2023/04/08 01:54:34;;;;;;;33.75;15.63;;;;;;;12.63;70.99;102433.09;5107358;28;20028;-44
2023/04/08 01:57:03;;;;;;;34.40;15.48;;;;;;;12.55;71.60;102430.25;5104216;27;20034;-43
2023/04/08 01:59:31;;;;;;;34.10;15.70;;;;;;;12.76;71.01;102430.88;5107623;28;20044;-43
2023/04/08 02:01:59;;;;;;;33.38;15.10;;;;;;;12.89;70.39;102429.50;5103878;28;20316;-45
2023/04/08 02:04:25;;;;;;;31.52;14.18;;;;;;;12.87;70.33;102436.41;5106936;27;20107;-43
2023/04/08 02:06:50;;;;;;;33.42;15.70;;;;;;;12.82;70.58;102428.44;5105721;27;20464;-43
2023/04/08 02:09:15;;;;;;;34.97;15.13;;;;;;;12.85;70.19;102430.28;5102626;28;20050;-48
2023/04/08 02:11:40;;;;;;;36.20;15.60;;;;;;;12.73;70.76;102428.19;5106151;27;20093;-44
2023/04/08 02:14:06;;;;;;;33.78;15.30;;;;;;;12.81;71.10;102433.63;5102665;28;20028;-43
2023/04/08 02:16:41;;;;;;;35.90;16.00;;;;;;;12.73;70.90;102430.81;5106024;28;20445;-43
2023/04/08 02:19:16;;;;;;;37.55;16.80;;;;;;;12.49;71.83;102428.34;5103237;27;20119;-43
2023/04/08 02:21:56;;;;;;;40.28;16.77;;;;;;;12.67;71.26;102437.59;5104456;28;20028;-43
2023/04/08 02:24:21;;;;;;;32.95;15.10;;;;;;;12.75;71.00;102433.44;5102807;27;20076;-43
2023/04/08 02:26:50;;;;;;;36.80;16.70;;;;;;;12.60;71.17;102429.56;5105578;27;20040;-44
2023/04/08 02:29:17;;;;;;;37.03;16.95;;;;;;;12.47;71.76;102430.03;5100869;28;20096;-43
2023/04/08 02:31:44;;;;;;;39.33;17.48;;;;;;;12.32;72.47;102433.91;5105713;28;20032;-43
2023/04/08 02:34:10;;;;;;;38.40;16.92;;;;;;;12.39;72.40;102431.50;5103032;27;20031;-44
2023/04/08 02:36:37;;;;;;;37.65;16.15;;;;;;;12.42;72.24;102435.97;5105631;27;20028;-43
2023/04/08 02:39:03;;;;;;;38.67;16.35;;;;;;;12.63;71.64;102433.97;5102736;27;20039;-43
2023/04/08 02:41:29;;;;;;;35.40;16.15;;;;;;;12.67;71.44;102429.75;5105762;27;20028;-47
2023/04/08 02:43:55;;;;;;;38.45;16.48;;;;;;;12.62;71.81;102433.94;5106431;28;20031;-44
2023/04/08 02:46:20;;;;;;;37.28;16.02;;;;;;;12.71;71.45;102435.09;5102261;27;20489;-45
2023/04/08 02:48:46;;;;;;;38.35;16.02;;;;;;;12.68;71.59;102440.25;5105721;28;20060;-42
2023/04/08 02:51:11;;;;;;;37.42;16.60;;;;;;;12.65;71.47;102436.66;5102306;27;20084;-44
2023/04/08 02:53:36;;;;;;;36.45;15.73;;;;;;;12.74;71.65;102444.78;5105218;27;20031;-43
2023/04/08 02:56:02;;;;;;;41.03;16.77;;;;;;;12.66;71.92;102441.94;5102017;27;20273;-48
2023/04/08 02:58:27;;;;;;;35.30;15.25;;;;;;;12.67;71.76;102440.19;5104654;27;20101;-45
2023/04/08 03:00:53;;;;;;;41.38;16.88;;;;;;;12.73;71.56;102448.22;5106114;28;20020;-44
2023/04/08 03:03:18;;;;;;;34.97;15.60;;;;;;;12.81;71.02;102444.97;5101594;28;20085;-46
2023/04/08 03:05:43;;;;;;;39.53;15.88;;;;;;;12.77;71.21;102452.69;5104582;27;20046;-44
2023/04/08 03:08:09;;;;;;;37.92;16.02;;;;;;;12.64;71.61;102442.72;5101937;28;20088;-46
2023/04/08 03:10:34;;;;;;;41.88;16.52;;;;;;;12.57;71.49;102447.75;5105255;27;20027;-44
2023/04/08 03:12:59;;;;;;;40.55;16.00;;;;;;;12.64;70.98;102455.78;5102209;28;20042;-45
2023/04/08 03:15:25;;;;;;;36.13;16.67;;;;;;;12.64;70.76;102456.69;5106500;27;20028;-45
2023/04/08 03:17:50;;;;;;;38.17;16.20;;;;;;;12.54;70.87;102459.88;5105891;27;20126;-43
2023/04/08 03:20:15;;;;;;;38.25;16.05;;;;;;;12.53;70.49;102452.84;5102883;27;20122;-43
2023/04/08 03:22:41;;;;;;;36.60;15.32;;;;;;;12.35;71.20;102455.81;5106185;27;20103;-47
2023/04/08 03:25:06;;;;;;;34.78;15.68;;;;;;;12.37;70.90;102458.47;5103122;27;20058;-44
2023/04/08 03:27:32;;;;;;;37.80;16.13;;;;;;;12.35;71.28;102458.41;5105811;28;20135;-45
2023/04/08 03:29:57;;;;;;;40.63;16.50;;;;;;;12.27;71.60;102464.22;5103301;28;20053;-49
2023/04/08 03:32:23;;;;;;;41.03;16.13;;;;;;;12.23;71.71;102463.25;5107438;27;20031;-44
2023/04/08 03:34:50;;;;;;;36.13;15.85;;;;;;;12.28;71.57;102466.00;5107341;28;20035;-44
2023/04/08 03:37:16;;;;;;;40.78;16.13;;;;;;;12.36;71.40;102468.03;5103750;28;20031;-45
2023/04/08 03:39:42;;;;;;;37.67;16.02;;;;;;;12.36;71.81;102472.38;5108534;27;20028;-49
2023/04/08 03:42:07;;;;;;;37.13;15.05;;;;;;;12.43;71.75;102475.25;5104354;28;20068;-44
2023/04/08 03:44:32;;;;;;;38.50;15.55;;;;;;;12.45;71.67;102473.53;5108145;28;20020;-44
2023/04/08 03:46:57;;;;;;;37.28;15.65;;;;;;;12.46;71.92;102480.56;5106079;27;20044;-47
2023/04/08 03:49:23;;;;;;;38.08;15.55;;;;;;;12.50;71.90;102473.72;5109816;27;20047;-44
2023/04/08 03:51:49;;;;;;;39.25;15.63;;;;;;;12.50;71.79;102476.31;5108309;28;20114;-46
2023/04/08 03:54:14;;;;;;;37.15;15.23;;;;;;;12.52;71.71;102478.13;5104315;28;20112;-43
2023/04/08 03:56:39;;;;;;;45.03;17.40;;;;;;;12.36;72.15;102477.63;5109245;28;20063;-43
2023/04/08 03:59:05;;;;;;;42.63;17.15;;;;;;;12.45;71.85;102483.13;5103838;27;20036;-44
2023/04/08 04:01:31;;;;;;;42.22;16.10;;;;;;;12.42;71.74;102485.66;5105610;28;20023;-46
2023/04/08 04:03:56;;;;;;;43.33;17.23;;;;;;;12.41;71.79;102476.03;5102436;28;20031;-49
2023/04/08 04:06:22;;;;;;;43.40;16.92;;;;;;;12.29;72.02;102492.22;5105774;28;20516;-43
2023/04/08 04:08:48;;;;;;;42.05;16.80;;;;;;;12.38;71.72;102489.88;5105154;27;20035;-47
2023/04/08 04:11:14;;;;;;;46.35;17.95;;;;;;;12.29;71.81;102496.56;5100951;28;20101;-43
2023/04/08 04:13:39;;;;;;;41.30;16.40;;;;;;;12.42;71.18;102496.13;5104135;28;20135;-45
2023/04/08 04:16:05;;;;;;;40.83;16.52;;;;;;;12.39;71.26;102504.75;5099743;28;20042;-47
2023/04/08 04:18:30;;;;;;;38.83;16.17;;;;;;;12.45;70.70;102506.66;5103330;27;20368;-43
2023/04/08 04:20:55;;;;;;;39.85;16.85;;;;;;;12.30;71.02;102508.81;5102561;28;20031;-43
2023/04/08 04:23:23;;;;;;;43.38;17.00;;;;;;;12.38;70.81;102510.81;5099415;28;20032;-45
2023/04/08 04:25:48;;;;;;;43.30;16.85;;;;;;;12.23;71.08;102510.31;5103265;27;20059;-50
2023/04/08 04:28:13;;;;;;;37.97;15.90;;;;;;;12.37;70.96;102516.00;5099802;27;20055;-44
2023/04/08 04:30:39;;;;;;;35.40;15.77;;;;;;;12.37;70.87;102513.41;5104073;28;20110;-44
2023/04/08 04:33:05;;;;;;;43.63;16.70;;;;;;;12.40;70.60;102514.38;5100143;28;20069;-46
2023/04/08 04:35:30;;;;;;;44.35;16.75;;;;;;;12.37;70.96;102516.91;5102342;28;20042;-48
2023/04/08 04:37:56;;;;;;;37.35;15.85;;;;;;;12.40;70.95;102514.38;5100633;28;20564;-60
2023/04/08 04:40:21;;;;;;;40.70;16.67;;;;;;;12.40;70.76;102521.31;5103685;28;20039;-43
2023/04/08 04:42:47;;;;;;;41.38;16.35;;;;;;;12.30;70.86;102517.53;5103981;28;20039;-43
2023/04/08 04:45:12;;;;;;;80.63;16.35;;;;;;;12.04;71.46;102521.00;5099850;28;20120;-43
2023/04/08 04:47:37;;;;;;;39.42;18.30;;;;;;;12.14;71.48;102529.22;5103223;27;20111;-45
2023/04/08 04:50:03;;;;;;;72.25;15.85;;;;;;;12.09;71.39;102529.88;5099969;28;20036;-45
2023/04/08 04:52:29;;;;;;;110.53;15.82;;;;;;;12.01;70.88;102527.03;5102930;28;20040;-43
2023/04/08 04:54:56;;;;;;;29.30;14.27;;;;;;;12.14;70.60;102525.69;5104193;28;20435;-43
2023/04/08 04:57:21;;;;;;;76.78;15.23;;;;;;;12.12;70.60;102533.50;5100921;27;20112;-47
2023/04/08 04:59:47;;;;;;;81.78;15.90;;;;;;;12.05;70.86;102539.38;5103115;27;20048;-43
2023/04/08 05:02:12;;;;;;;33.80;14.43;;;;;;;11.93;71.16;102536.34;5099401;28;20508;-44
2023/04/08 05:04:37;;;;;;;107.03;15.38;;;;;;;11.91;70.97;102544.94;5103328;28;20028;-45
2023/04/08 05:07:03;;;;;;;30.20;13.18;;;;;;;11.73;71.65;102533.03;5099947;27;20031;-48
2023/04/08 05:09:28;;;;;;;30.13;13.25;;;;;;;11.78;71.58;102538.41;5103415;28;20031;-49
2023/04/08 05:11:53;;;;;;;58.25;13.90;;;;;;;11.85;71.39;102539.50;5103571;28;20615;-44
2023/04/08 05:14:19;;;;;;;31.85;14.25;;;;;;;11.91;71.19;102545.84;5099861;27;20111;-45
2023/04/08 05:16:44;;;;;;;63.20;14.52;;;;;;;11.71;71.89;102541.63;5101536;28;20122;-43
2023/04/08 05:19:10;;;;;;;43.65;13.93;;;;;;;11.89;70.94;102537.09;5100208;28;20024;-42
2023/04/08 05:21:35;;;;;;;71.20;16.02;;;;;;;11.94;70.71;102540.75;5105822;28;20077;-47
2023/04/08 05:24:00;;;;;;;66.05;14.55;;;;;;;11.71;71.64;102544.25;5105528;27;20023;-43
2023/04/08 05:26:26;;;;;;;64.40;15.40;;;;;;;11.53;72.60;102547.06;5111206;28;20031;-45
2023/04/08 05:28:51;;;;;;;133.52;17.75;;;;;;;11.72;71.90;102544.28;5111181;28;20081;-45
2023/04/08 05:31:18;;;;;;;45.05;15.48;;;;;;;11.82;71.67;102547.25;5107747;28;20036;-45
2023/04/08 05:33:43;;;;;;;31.33;13.93;;;;;;;11.92;71.41;102550.25;5112199;27;20035;-44
2023/04/08 05:36:10;;;;;;;52.85;13.45;;;;;;;11.73;71.40;102550.41;5107273;28;20060;-44
2023/04/08 05:38:36;;;;;;;37.20;13.35;;;;;;;11.80;71.36;102552.44;5109054;28;20588;-46
2023/04/08 05:41:01;;;;;;;31.75;13.05;;;;;;;11.70;71.31;102559.03;5104921;27;20051;-43
2023/04/08 05:43:26;;;;;;;56.95;13.80;;;;;;;11.91;71.24;102564.13;5109325;27;20034;-45
2023/04/08 05:45:52;;;;;;;34.70;14.20;;;;;;;11.93;71.27;102557.25;5106653;27;20087;-47
2023/04/08 05:48:17;;;;;;;67.63;14.38;;;;;;;11.87;71.64;102566.59;5103329;27;20460;-44
2023/04/08 05:50:42;;;;;;;49.25;15.98;;;;;;;11.81;71.89;102577.72;5106749;28;20031;-45
2023/04/08 05:53:08;;;;;;;92.95;15.50;;;;;;;11.85;71.95;102570.88;5103636;27;20094;-43
2023/04/08 05:55:34;;;;;;;194.45;17.17;;;;;;;11.65;72.15;102578.84;5106255;27;20032;-45
2023/04/08 05:57:59;;;;;;;65.07;15.93;;;;;;;11.82;71.94;102579.50;5102900;27;20397;-43
2023/04/08 06:00:25;;;;;;;168.75;18.08;;;;;;;11.72;72.53;102585.19;5107353;28;20080;-48
2023/04/08 06:02:51;;;;;;;79.50;17.00;;;;;;;11.91;72.28;102578.94;5105770;28;20060;-48
2023/04/08 06:05:17;;;;;;;40.72;16.42;;;;;;;12.18;71.62;102587.75;5083904;28;20040;-43
2023/04/08 06:07:43;;;;;;;47.33;17.23;;;;;;;12.15;71.78;102595.47;5106397;28;20525;-47
2023/04/08 06:10:09;;;;;;;54.67;17.85;;;;;;;12.16;71.78;102589.41;5102842;27;20054;-47
2023/04/08 06:12:36;;;;;;;44.42;17.85;;;;;;;12.30;71.47;102593.38;5105790;27;20032;-44
2023/04/08 06:15:01;;;;;;;48.42;18.73;;;;;;;12.00;71.84;102587.09;5102981;28;20040;-45
2023/04/08 06:17:26;;;;;;;50.72;18.17;;;;;;;12.26;71.61;102601.06;5106318;27;20084;-45
2023/04/08 06:19:52;;;;;;;41.50;17.75;;;;;;;12.38;71.55;102602.34;5103955;28;20036;-47
2023/04/08 06:22:17;;;;;;;49.60;17.95;;;;;;;12.44;71.29;102599.94;5102360;27;20096;-45
2023/04/08 06:24:42;;;;;;;47.60;18.35;;;;;;;12.16;72.10;102599.84;5105574;27;20040;-47
2023/04/08 06:27:08;;;;;;;44.20;18.48;;;;;;;12.07;72.61;102602.16;5103503;27;20035;-46
2023/04/08 06:29:33;;;;;;;42.95;17.70;;;;;;;12.12;72.43;102603.22;5108093;27;20032;-43
2023/04/08 06:31:58;;;;;;;43.53;17.98;;;;;;;12.26;72.07;102603.69;5104120;28;20042;-43
2023/04/08 06:34:24;;;;;;;34.55;16.30;;;;;;;12.41;71.51;102609.41;5107316;27;20494;-45
2023/04/08 06:36:50;;;;;;;34.67;15.98;;;;;;;12.42;71.70;102613.81;5106900;27;20027;-43
2023/04/08 06:39:15;;;;;;;34.03;16.55;;;;;;;12.65;71.64;102618.06;5102049;27;20084;-44
2023/04/08 06:41:41;;;;;;;30.40;16.20;;;;;;;12.75;70.06;102622.75;5105478;28;20484;-46
2023/04/08 06:44:06;;;;;;;33.30;16.75;;;;;;;13.32;69.20;102621.09;5101940;27;20031;-48
2023/04/08 06:46:32;;;;;;;31.30;15.80;;;;;;;13.24;68.26;102622.59;5105359;27;20580;-43
2023/04/08 06:48:57;;;;;;;30.45;16.80;;;;;;;13.20;68.58;102633.84;5103041;27;20501;-54
2023/04/08 06:51:22;;;;;;;30.67;16.38;;;;;;;13.66;67.95;102619.47;5107872;28;20027;-44
2023/04/08 06:53:48;;;;;;;30.30;16.75;;;;;;;14.00;65.70;102616.94;5107460;27;20040;-44
2023/04/08 06:56:13;;;;;;;33.80;17.02;;;;;;;13.67;66.03;102618.59;5101410;28;20114;-45
2023/04/08 06:58:38;;;;;;;32.95;16.65;;;;;;;13.90;65.99;102624.53;5104839;27;20040;-44
2023/04/08 07:01:04;;;;;;;37.60;17.88;;;;;;;13.89;65.25;102628.88;5101468;28;20035;-44
2023/04/08 07:03:29;;;;;;;28.13;16.45;;;;;;;14.16;64.94;102632.22;5104794;27;20055;-46
2023/04/08 07:05:55;;;;;;;31.55;17.20;;;;;;;14.12;63.56;102637.34;5105399;28;20057;-43
2023/04/08 07:08:20;;;;;;;32.13;17.45;;;;;;;13.91;64.07;102639.38;5101985;28;20468;-46
2023/04/08 07:10:46;;;;;;;28.92;17.05;;;;;;;14.13;63.57;102649.63;5105932;27;20088;-44
2023/04/08 07:13:12;;;;;;;32.35;17.88;;;;;;;13.91;64.65;102652.50;5102555;27;20046;-45
2023/04/08 07:15:37;;;;;;;35.45;18.33;;;;;;;12.95;67.28;102660.06;5106168;28;20051;-44
2023/04/08 07:18:03;;;;;;;35.83;18.42;;;;;;;13.13;68.13;102657.16;5102822;27;20115;-48
2023/04/08 07:20:29;;;;;;;32.50;17.65;;;;;;;13.75;66.50;102651.19;5104740;27;20032;-48
2023/04/08 07:22:55;;;;;;;35.30;18.35;;;;;;;13.56;66.83;102656.72;5104845;27;20055;-48
2023/04/08 07:25:20;;;;;;;33.88;17.15;;;;;;;13.63;66.23;102661.31;5101689;28;20051;-47
2023/04/08 07:27:45;;;;;;;32.03;16.83;;;;;;;13.84;66.03;102664.56;5104864;27;20035;-46
2023/04/08 07:30:11;;;;;;;30.58;16.65;;;;;;;13.76;66.03;102669.59;5101068;27;20581;-44
2023/04/08 07:32:37;;;;;;;31.02;16.83;;;;;;;14.12;65.22;102671.47;5104864;28;20040;-45
2023/04/08 07:35:02;;;;;;;30.90;16.52;;;;;;;14.21;64.57;102671.69;5104912;27;20035;-46
2023/04/08 07:37:28;;;;;;;36.47;16.52;;;;;;;14.02;64.67;102672.94;5110416;27;20027;-53
2023/04/08 07:39:53;;;;;;;34.00;16.40;;;;;;;14.01;64.53;102672.91;5107293;28;20375;-44
2023/04/08 07:42:19;;;;;;;28.23;15.23;;;;;;;14.07;64.47;102676.59;5101650;27;20104;-46
2023/04/08 07:44:45;;;;;;;30.30;15.68;;;;;;;13.92;65.19;102670.91;5108488;28;20505;-43
2023/04/08 07:47:11;;;;;;;27.98;15.18;;;;;;;14.10;65.00;102673.13;5106725;28;20038;-45
2023/04/08 07:49:37;;;;;;;50.22;15.93;;;;;;;13.70;64.37;102679.00;5105809;27;20383;-43
2023/04/08 07:52:03;;;;;;;35.17;15.30;;;;;;;13.86;65.09;102675.97;5100572;27;20043;-43
2023/04/08 07:54:30;;;;;;;26.50;14.25;;;;;;;13.82;64.87;102680.25;5102526;28;20066;-46
2023/04/08 07:56:56;;;;;;;28.70;14.68;;;;;;;13.96;64.19;102670.16;5103954;28;20077;-46
2023/04/08 07:59:21;;;;;;;24.70;13.95;;;;;;;13.88;65.39;102676.91;5100644;27;20427;-44
2023/04/08 08:01:47;;;;;;;27.48;14.98;;;;;;;14.09;63.79;102673.97;5103730;27;20135;-44
2023/04/08 08:04:12;;;;;;;22.30;13.15;;;;;;;14.02;64.31;102680.81;5100834;28;20036;-44
2023/04/08 08:06:38;;;;;;;24.25;12.77;;;;;;;14.37;62.28;102680.88;5103828;28;20114;-43
2023/04/08 08:09:03;;;;;;;23.73;13.60;;;;;;;14.35;62.85;102688.69;5101029;28;20035;-45
2023/04/08 08:11:29;;;;;;;39.08;14.07;;;;;;;14.60;62.01;102683.28;5109015;28;20059;-47
2023/04/08 08:13:54;;;;;;;28.75;14.15;;;;;;;14.41;62.04;102688.91;5108933;28;20438;-46
2023/04/08 08:16:20;;;;;;;31.02;14.55;;;;;;;14.07;62.18;102701.91;5103658;28;20106;-44
2023/04/08 08:18:45;;;;;;;27.52;13.60;;;;;;;14.31;61.88;102699.06;5107368;28;20034;-43
2023/04/08 08:21:10;;;;;;;25.95;12.73;;;;;;;13.84;62.43;102706.50;5102655;28;20027;-43
2023/04/08 08:23:36;;;;;;;19.83;12.38;;;;;;;13.89;62.67;102714.50;5106150;27;20062;-48
2023/04/08 08:26:08;;;;;;;19.63;12.57;;;;;;;13.99;62.21;102712.19;5099045;28;20027;-50
2023/04/08 08:28:34;;;;;;;30.25;12.55;;;;;;;13.73;61.25;102718.38;5103873;28;20032;-44
2023/04/08 08:30:59;;;;;;;33.67;11.93;;;;;;;13.62;63.05;102714.56;5100377;28;20115;-43
2023/04/08 08:33:25;;;;;;;17.15;11.85;;;;;;;13.58;62.18;102720.56;5104660;28;20497;-47
2023/04/08 08:35:50;;;;;;;17.85;12.73;;;;;;;13.89;61.36;102715.41;5103538;28;20458;-48
2023/04/08 08:38:16;;;;;;;24.33;13.32;;;;;;;13.98;60.39;102720.88;5100174;28;20079;-46
2023/04/08 08:40:42;;;;;;;20.10;13.45;;;;;;;13.99;61.05;102719.16;5102957;28;20019;-43
2023/04/08 08:43:08;;;;;;;19.38;13.57;;;;;;;14.11;60.62;102717.78;5101024;28;20119;-46
2023/04/08 08:45:38;;;;;;;24.45;14.98;;;;;;;13.93;60.03;102721.59;5103311;28;20030;-46
2023/04/08 08:48:05;;;;;;;22.75;14.85;;;;;;;14.30;60.55;102726.16;5100060;27;20520;-46
2023/04/08 08:50:30;;;;;;;22.45;15.70;;;;;;;14.55;59.64;102724.28;5103465;28;20096;-44
2023/04/08 08:52:55;;;;;;;27.33;16.55;;;;;;;14.70;58.41;102725.53;5103252;28;20039;-45
2023/04/08 08:55:21;;;;;;;23.38;16.67;;;;;;;15.13;58.07;102728.34;5099081;28;20043;-47
2023/04/08 08:57:50;;;;;;;23.10;16.33;;;;;;;15.33;57.13;102715.69;5103772;28;20039;-43
2023/04/08 09:00:15;;;;;;;27.65;17.98;;;;;;;14.90;56.99;102713.78;5101038;28;20718;-46
2023/04/08 09:02:41;;;;;;;27.83;19.15;;;;;;;14.78;57.23;102713.47;5104932;28;20048;-44
2023/04/08 09:05:06;;;;;;;33.53;21.58;;;;;;;14.24;59.11;102721.63;5100587;28;20100;-45
2023/04/08 09:07:35;;;;;;;33.90;22.20;;;;;;;14.96;57.17;102719.19;5103057;28;20035;-44
2023/04/08 09:10:01;;;;;;;33.45;21.92;;;;;;;15.08;56.17;102714.22;5099816;28;20089;-45
2023/04/08 09:12:30;;;;;;;38.28;24.40;;;;;;;14.61;56.55;102715.66;5103368;28;20027;-45
2023/04/08 09:15:09;;;;;;;36.97;22.40;;;;;;;14.79;58.34;102720.50;5103054;28;20107;-44
2023/04/08 09:17:40;;;;;;;32.30;22.08;;;;;;;14.76;57.26;102716.03;5101552;28;20440;-45
2023/04/08 09:20:13;;;;;;;33.35;22.67;;;;;;;14.85;56.90;102718.91;5099588;28;20035;-48
2023/04/08 09:22:57;;;;;;;35.88;22.92;;;;;;;14.51;57.52;102725.06;5103457;28;20027;-44
2023/04/08 09:25:27;;;;;;;36.45;23.33;;;;;;;14.33;57.17;102726.25;5101306;28;20054;-45
2023/04/08 09:27:53;;;;;;;34.30;22.40;;;;;;;14.30;59.16;102719.19;5103644;28;20035;-43
2023/04/08 09:30:21;;;;;;;30.80;21.38;;;;;;;14.40;59.63;102725.59;5098871;28;20042;-45
2023/04/08 09:32:52;;;;;;;30.88;21.80;;;;;;;14.72;58.86;102719.44;5102764;28;20095;-46
2023/04/08 09:35:21;;;;;;;31.60;21.30;;;;;;;14.86;59.55;102722.44;5099811;28;20031;-45
2023/04/08 09:37:48;;;;;;;30.88;21.08;;;;;;;14.90;58.82;102719.91;5103236;28;20509;-47
2023/04/08 09:40:17;;;;;;;31.58;20.95;;;;;;;14.52;60.26;102724.19;5099584;28;20088;-45
2023/04/08 09:42:49;;;;;;;28.30;19.70;;;;;;;14.75;59.36;102726.53;5103289;28;20040;-43
2023/04/08 09:45:16;;;;;;;28.85;20.10;;;;;;;14.80;58.64;102723.19;5099684;28;20054;-45
2023/04/08 09:47:51;;;;;;;27.45;19.73;;;;;;;14.74;57.87;102719.50;5102612;28;20039;-44
2023/04/08 09:50:19;;;;;;;26.95;19.35;;;;;;;14.84;56.56;102721.50;5098653;28;20044;-44
2023/04/08 09:52:50;;;;;;;26.50;19.08;;;;;;;14.99;55.45;102716.66;5102607;28;20055;-47
2023/04/08 09:55:20;;;;;;;26.40;19.15;;;;;;;15.35;54.70;102724.50;5098531;28;20435;-44
2023/04/08 09:58:11;;;;;;;27.75;19.70;;;;;;;15.23;55.73;102718.97;5101697;28;20035;-45
2023/04/08 10:00:42;;;;;;;28.27;19.10;;;;;;;15.12;53.53;102716.09;5101299;28;20031;-44
2023/04/08 10:03:27;;;;;;;28.33;19.55;;;;;;;15.41;54.26;102714.13;5098304;28;20077;-45
2023/04/08 10:05:53;;;;;;;27.00;19.42;;;;;;;15.55;53.87;102727.63;5103781;28;20488;-47
2023/04/08 10:08:19;;;;;;;28.50;19.88;;;;;;;14.81;53.69;102724.06;5102902;28;20036;-49
2023/04/08 10:10:45;;;;;;;26.65;19.17;;;;;;;15.18;54.07;102725.88;5107112;28;20108;-49
2023/04/08 10:13:11;;;;;;;27.88;19.65;;;;;;;15.47;53.80;102731.78;5103618;27;20031;-48
2023/04/08 10:15:38;;;;;;;28.10;20.00;;;;;;;15.56;53.35;102732.00;5106504;27;20413;-46
2023/04/08 10:18:04;;;;;;;28.10;19.95;;;;;;;15.77;53.68;102728.13;5104696;27;20402;-48
2023/04/08 10:20:35;;;;;;;31.25;20.73;;;;;;;15.14;54.93;102717.00;5108137;27;20031;-49
2023/04/08 10:23:14;;;;;;;27.10;19.88;;;;;;;15.42;54.38;102721.19;5104405;28;20046;-45
2023/04/08 10:25:40;;;;;;;27.70;20.00;;;;;;;15.11;55.64;102721.31;5106380;28;20548;-50
2023/04/08 10:28:26;;;;;;;28.42;20.27;;;;;;;15.04;57.22;102720.28;5102723;28;20123;-46
2023/04/08 10:30:56;;;;;;;29.65;19.85;;;;;;;15.38;55.97;102714.94;5104896;28;20042;-44
2023/04/08 10:33:33;;;;;;;27.02;19.05;;;;;;;15.67;55.13;102717.38;5100779;28;20032;-46
2023/04/08 10:36:10;;;;;;;35.35;19.40;;;;;;;15.73;54.82;102717.53;5102513;27;20034;-44
2023/04/08 10:38:36;;;;;;;28.27;18.58;;;;;;;15.75;53.89;102719.31;5105781;28;20115;-44
2023/04/08 10:41:03;;;;;;;23.80;18.00;;;;;;;15.76;52.15;102704.41;5100181;27;20092;-48
2023/04/08 10:43:32;;;;;;;26.42;18.17;;;;;;;16.07;50.21;102706.84;5106545;27;20092;-57
2023/04/08 10:45:58;;;;;;;33.25;18.55;;;;;;;16.20;51.77;102706.22;5102715;28;20065;-45
2023/04/08 10:48:24;;;;;;;27.30;18.88;;;;;;;16.26;49.43;102707.19;5104361;27;20035;-45
2023/04/08 10:51:03;;;;;;;26.88;17.58;;;;;;;16.46;48.15;102697.94;5106558;28;20123;-48
2023/04/08 10:53:34;;;;;;;26.33;17.48;;;;;;;16.30;47.00;102706.38;5103136;27;20521;-47
2023/04/08 10:56:14;;;;;;;26.50;17.90;;;;;;;16.30;47.67;102707.25;5101476;27;20050;-46
2023/04/08 10:58:50;;;;;;;25.63;18.15;;;;;;;16.60;46.72;102705.22;5105505;28;20059;-46
2023/04/08 11:01:16;;;;;;;27.55;18.15;;;;;;;16.46;47.26;102716.34;5101456;27;20497;-48
2023/04/08 11:03:42;;;;;;;26.48;18.35;;;;;;;16.30;47.32;102699.38;5104265;28;20077;-48
2023/04/08 11:06:07;;;;;;;26.75;18.30;;;;;;;16.94;47.10;102704.06;5101073;27;20035;-47
2023/04/08 11:08:34;;;;;;;25.48;18.35;;;;;;;16.50;46.89;102708.53;5104605;27;20527;-46